Time;durP1;ratioP1;P1;durP2;ratioP2;P2;SDS_P1;SDS_P2;PMS_P1;PMS_P2;Temp;Humidity;BMP_temperature;BMP_pressure;BME280_temperature;BME280_humidity;BME280_pressure;Samples;Min_cycle;Max_cycle;Signal;HPM_P1;HPM_P2
2022/01/13 00:02:03;;;;;;;25.15;12.98;;;15.00;80.80;;;;;;4097110;28;20055;-61
2022/01/13 00:04:26;;;;;;;26.60;13.02;;;15.00;80.70;;;;;;4097251;28;20051;-61
2022/01/13 00:06:50;;;;;;;27.85;12.65;;;15.10;80.60;;;;;;4112160;28;20106;-62
2022/01/13 00:09:13;;;;;;;28.67;14.02;;;15.10;80.60;;;;;;4113115;28;20055;-61
2022/01/13 00:11:38;;;;;;;32.25;13.10;;;15.20;80.20;;;;;;4113250;28;20097;-61
2022/01/13 00:16:45;;;;;;;34.28;13.95;;;15.40;79.60;;;;;;4112044;28;20047;-61
2022/01/13 00:19:21;;;;;;;29.60;13.70;;;15.40;79.30;;;;;;4113158;28;20051;-60
2022/01/13 00:21:50;;;;;;;25.95;12.65;;;15.50;79.30;;;;;;4112048;28;20072;-60
2022/01/13 00:24:13;;;;;;;30.70;13.98;;;15.50;79.00;;;;;;4112509;28;20054;-61
2022/01/13 00:26:37;;;;;;;29.92;13.70;;;15.50;78.90;;;;;;4112648;28;20093;-61
2022/01/13 00:29:02;;;;;;;27.20;14.07;;;15.50;78.90;;;;;;4112883;28;20055;-60
2022/01/13 00:31:29;;;;;;;32.13;13.95;;;15.50;78.70;;;;;;4112829;28;20054;-60
2022/01/13 00:33:54;;;;;;;31.17;14.23;;;15.50;78.50;;;;;;4112587;28;20113;-61
2022/01/13 00:36:17;;;;;;;33.80;13.35;;;15.50;78.60;;;;;;4112691;28;20105;-61
2022/01/13 00:38:41;;;;;;;32.28;14.93;;;15.50;78.70;;;;;;4112943;28;20098;-61
2022/01/13 00:41:04;;;;;;;27.15;13.73;;;15.40;79.10;;;;;;4112746;28;20483;-61
2022/01/13 00:43:29;;;;;;;28.35;13.48;;;15.40;79.20;;;;;;4112418;28;20054;-61
2022/01/13 00:45:52;;;;;;;27.38;11.75;;;15.40;79.10;;;;;;4112668;28;20101;-61
2022/01/13 00:48:15;;;;;;;25.30;11.65;;;15.40;79.00;;;;;;4112545;28;21110;-61
2022/01/13 00:50:38;;;;;;;26.17;13.32;;;15.50;79.00;;;;;;4112464;28;20097;-60
2022/01/13 00:53:01;;;;;;;22.40;12.73;;;15.50;78.70;;;;;;4111376;28;20462;-60
2022/01/13 00:55:32;;;;;;;26.42;13.23;;;15.50;78.80;;;;;;4096587;28;20114;-60
2022/01/13 00:57:56;;;;;;;25.70;13.10;;;15.50;78.40;;;;;;4094887;28;20051;-61
2022/01/13 01:00:20;;;;;;;29.60;13.10;;;15.50;79.30;;;;;;4096312;28;20055;-61
2022/01/13 01:02:44;;;;;;;28.50;11.88;;;15.50;78.40;;;;;;4096391;28;20055;-61
2022/01/13 01:05:08;;;;;;;21.33;12.07;;;15.50;79.20;;;;;;4111780;28;20819;-61
2022/01/13 01:07:31;;;;;;;25.70;11.27;;;15.40;79.10;;;;;;4112022;28;20043;-61
2022/01/13 01:09:57;;;;;;;23.73;10.75;;;15.40;78.50;;;;;;4110863;28;20046;-61
2022/01/13 01:12:21;;;;;;;26.15;10.60;;;15.30;78.60;;;;;;4111990;28;20050;-62
2022/01/13 01:14:48;;;;;;;22.02;10.05;;;15.30;78.90;;;;;;4111731;28;20055;-61
2022/01/13 01:17:15;;;;;;;23.40;11.63;;;15.30;79.10;;;;;;4112091;28;20055;-62
2022/01/13 01:19:40;;;;;;;26.85;10.55;;;15.30;80.00;;;;;;4112508;28;20047;-60
2022/01/13 01:27:28;;;;;;;24.80;10.07;;;15.30;79.20;;;;;;4095663;28;20514;-60
2022/01/13 01:29:56;;;;;;;23.40;10.00;;;15.30;79.20;;;;;;4098249;28;20050;-60
2022/01/13 01:32:21;;;;;;;25.33;10.57;;;15.30;79.20;;;;;;4111279;28;20105;-61
2022/01/13 01:34:54;;;;;;;22.15;11.05;;;15.20;79.50;;;;;;4112097;28;20055;-61
2022/01/13 01:37:19;;;;;;;31.05;14.95;;;15.30;79.80;;;;;;4111182;28;20088;-67
2022/01/13 01:39:42;;;;;;;25.33;14.02;;;15.40;79.30;;;;;;4111451;28;20055;-68
2022/01/13 01:42:07;;;;;;;26.17;14.00;;;15.50;78.70;;;;;;4111813;28;20050;-68
2022/01/13 01:44:34;;;;;;;26.83;13.43;;;15.60;77.90;;;;;;4111724;28;20097;-67
2022/01/13 01:46:58;;;;;;;26.85;14.13;;;15.70;77.20;;;;;;4111909;28;20074;-67
2022/01/13 01:49:25;;;;;;;31.13;13.75;;;15.70;76.80;;;;;;4111206;28;20380;-67
2022/01/13 01:51:53;;;;;;;26.73;13.20;;;15.70;76.60;;;;;;4095644;28;20051;-67
2022/01/13 01:54:16;;;;;;;26.77;12.68;;;15.70;76.30;;;;;;4095557;28;20730;-61
2022/01/13 01:56:41;;;;;;;28.77;14.05;;;15.70;76.30;;;;;;4095681;28;20531;-60
2022/01/13 01:59:05;;;;;;;23.92;13.15;;;15.60;76.30;;;;;;4095934;28;20104;-61
2022/01/13 02:01:30;;;;;;;27.30;12.57;;;15.60;76.30;;;;;;4095388;28;20570;-61
2022/01/13 02:03:53;;;;;;;27.67;12.85;;;15.60;76.20;;;;;;4095789;28;20074;-61
2022/01/13 02:06:18;;;;;;;24.05;11.70;;;15.60;76.00;;;;;;4095515;28;20055;-61
2022/01/13 02:08:41;;;;;;;27.90;13.63;;;15.50;76.00;;;;;;4094827;28;20541;-63
2022/01/13 02:11:04;;;;;;;22.23;11.82;;;15.50;76.20;;;;;;4108887;28;20400;-62
2022/01/13 02:13:33;;;;;;;22.92;13.18;;;15.50;76.20;;;;;;4111037;28;20043;-61
2022/01/13 02:16:02;;;;;;;23.05;12.25;;;15.50;76.20;;;;;;4110947;28;20395;-61
2022/01/13 02:18:25;;;;;;;29.13;13.13;;;15.50;76.50;;;;;;4111194;28;20051;-61
2022/01/13 02:20:53;;;;;;;28.92;12.13;;;15.50;76.40;;;;;;4110924;28;20047;-61
2022/01/13 02:23:29;;;;;;;26.23;11.98;;;15.60;75.80;;;;;;4111259;28;20109;-61
2022/01/13 02:25:52;;;;;;;26.13;12.02;;;15.80;74.90;;;;;;4110697;28;20050;-61
2022/01/13 02:28:15;;;;;;;25.08;12.43;;;15.80;74.60;;;;;;4111232;28;20484;-61
2022/01/13 02:30:38;;;;;;;24.85;11.32;;;15.90;74.20;;;;;;4110507;28;20428;-61
2022/01/13 02:33:01;;;;;;;30.27;12.50;;;16.00;73.80;;;;;;4111072;28;20051;-61
2022/01/13 02:35:33;;;;;;;23.40;11.75;;;16.00;73.50;;;;;;4110732;28;20073;-61
2022/01/13 02:37:58;;;;;;;24.58;10.77;;;16.00;73.30;;;;;;4110526;28;20167;-61
2022/01/13 02:40:21;;;;;;;26.45;11.40;;;16.00;73.30;;;;;;4110747;28;20050;-61
2022/01/13 02:42:44;;;;;;;32.90;13.07;;;15.90;73.30;;;;;;4110984;28;20093;-61
2022/01/13 02:45:16;;;;;;;28.40;11.50;;;15.90;73.60;;;;;;4110801;28;20082;-61
2022/01/13 02:48:00;;;;;;;21.75;11.57;;;15.90;73.60;;;;;;4110745;28;20053;-60
2022/01/13 02:50:23;;;;;;;20.42;10.60;;;15.90;73.60;;;;;;4109268;28;20086;-61
2022/01/13 02:52:46;;;;;;;22.95;11.00;;;15.80;73.70;;;;;;4110504;28;20097;-60
2022/01/13 02:55:12;;;;;;;19.40;11.18;;;15.80;74.00;;;;;;4110585;28;20055;-60
2022/01/13 02:57:35;;;;;;;28.17;11.77;;;15.70;74.00;;;;;;4109842;28;20058;-61
2022/01/13 02:59:58;;;;;;;23.70;11.77;;;15.70;74.40;;;;;;4110066;28;20055;-60
2022/01/13 03:02:28;;;;;;;21.52;10.98;;;15.60;74.70;;;;;;4110176;28;20050;-61
2022/01/13 03:04:51;;;;;;;28.67;11.88;;;15.60;74.70;;;;;;4110458;28;20538;-61
2022/01/13 03:07:14;;;;;;;27.75;12.07;;;15.50;75.80;;;;;;4110656;28;20431;-67
2022/01/13 03:09:37;;;;;;;24.95;12.00;;;15.50;75.10;;;;;;4110250;28;20069;-68
2022/01/13 03:12:01;;;;;;;26.38;11.57;;;15.60;75.10;;;;;;4110185;28;20542;-68
2022/01/13 03:14:24;;;;;;;30.00;11.80;;;15.70;74.60;;;;;;4110499;28;20101;-61
2022/01/13 03:16:47;;;;;;;25.92;11.63;;;15.80;74.00;;;;;;4110273;28;20100;-61
2022/01/13 03:19:11;;;;;;;27.38;10.93;;;15.80;73.50;;;;;;4110370;28;20055;-61
2022/01/13 03:21:34;;;;;;;25.00;11.23;;;15.90;73.30;;;;;;4093963;28;20098;-61
2022/01/13 03:23:57;;;;;;;24.25;10.65;;;15.90;73.00;;;;;;4094512;28;20055;-61
2022/01/13 03:26:22;;;;;;;24.10;11.00;;;15.90;72.90;;;;;;4094552;28;20102;-61
2022/01/13 03:28:54;;;;;;;25.73;10.55;;;15.90;72.70;;;;;;4094493;28;20050;-61
2022/01/13 03:31:17;;;;;;;24.00;10.95;;;15.90;73.50;;;;;;4109225;28;20101;-61
2022/01/13 03:33:40;;;;;;;20.05;10.93;;;15.90;73.00;;;;;;4110294;28;20432;-61
2022/01/13 03:36:04;;;;;;;24.13;10.32;;;15.80;73.10;;;;;;4110259;28;20074;-61
2022/01/13 03:38:27;;;;;;;28.83;11.80;;;15.90;73.30;;;;;;4110049;28;20118;-61
2022/01/13 03:40:51;;;;;;;30.90;11.70;;;15.80;73.30;;;;;;4110056;28;20097;-61
2022/01/13 03:43:16;;;;;;;26.40;11.23;;;15.90;73.30;;;;;;4110119;28;20098;-61
2022/01/13 03:45:41;;;;;;;20.85;10.90;;;15.90;73.10;;;;;;4109993;28;20427;-61
2022/01/13 03:48:06;;;;;;;24.08;10.60;;;15.90;73.00;;;;;;4110088;28;20192;-60
2022/01/13 03:50:29;;;;;;;22.95;10.60;;;15.90;73.00;;;;;;4109728;28;20121;-61
2022/01/13 03:53:43;;;;;;;23.23;10.15;;;15.90;73.00;;;;;;4109988;28;20480;-61
2022/01/13 03:56:42;;;;;;;23.20;10.57;;;15.90;72.80;;;;;;4108716;28;20297;-61
2022/01/13 03:59:33;;;;;;;20.05;10.50;;;15.90;72.90;;;;;;4108548;28;20062;-62
2022/01/13 04:02:05;;;;;;;22.02;10.25;;;15.90;72.70;;;;;;4092544;28;20047;-61
2022/01/13 04:04:29;;;;;;;29.25;11.55;;;16.00;72.20;;;;;;4094021;28;20105;-61
2022/01/13 04:07:08;;;;;;;23.58;10.52;;;16.10;71.90;;;;;;4094368;28;20055;-61
2022/01/13 04:10:10;;;;;;;27.00;10.73;;;16.20;71.40;;;;;;4098348;28;20058;-61
2022/01/13 04:12:33;;;;;;;24.48;11.00;;;16.10;71.20;;;;;;4108975;28;20051;-61
2022/01/13 04:14:59;;;;;;;24.50;11.65;;;16.10;71.50;;;;;;4109944;28;20051;-61
2022/01/13 04:17:25;;;;;;;24.17;10.48;;;16.10;71.70;;;;;;4109573;28;20051;-61
2022/01/13 04:19:48;;;;;;;32.28;12.63;;;16.10;71.60;;;;;;4110011;28;20434;-61
2022/01/13 04:22:12;;;;;;;23.67;12.20;;;16.10;71.60;;;;;;4110163;28;20054;-61
2022/01/13 04:24:38;;;;;;;27.60;10.73;;;16.10;71.60;;;;;;4110258;28;20050;-61
2022/01/13 04:27:01;;;;;;;27.38;11.88;;;16.10;71.60;;;;;;4110118;28;20105;-61
2022/01/13 04:29:33;;;;;;;23.70;11.20;;;16.00;71.60;;;;;;4093941;28;20080;-61
2022/01/13 04:31:55;;;;;;;33.05;11.52;;;16.00;71.70;;;;;;4095273;28;20055;-61
2022/01/13 04:34:20;;;;;;;30.80;11.25;;;16.00;72.00;;;;;;4097209;28;20110;-61
2022/01/13 04:36:44;;;;;;;21.27;10.32;;;16.00;72.10;;;;;;4096561;28;20055;-62
2022/01/13 04:39:09;;;;;;;25.38;10.63;;;16.00;72.10;;;;;;4110432;28;20051;-61
2022/01/13 04:41:34;;;;;;;22.25;10.07;;;16.00;71.80;;;;;;4112517;28;20058;-62
2022/01/13 04:43:57;;;;;;;18.95;9.68;;;16.10;71.60;;;;;;4112414;28;20051;-60
2022/01/13 04:46:20;;;;;;;17.95;10.25;;;16.10;71.50;;;;;;4112570;28;20101;-61
2022/01/13 04:48:44;;;;;;;19.77;10.20;;;16.10;71.50;;;;;;4112416;28;20475;-61
2022/01/13 04:51:08;;;;;;;22.42;10.23;;;16.10;71.60;;;;;;4112411;28;20566;-61
2022/01/13 04:53:31;;;;;;;19.80;8.82;;;16.20;71.40;;;;;;4112419;28;20043;-61
2022/01/13 04:55:58;;;;;;;18.42;9.82;;;16.30;71.10;;;;;;4112672;28;20051;-61
2022/01/13 04:58:22;;;;;;;21.08;10.65;;;16.30;70.60;;;;;;4112297;28;20054;-61
2022/01/13 05:00:45;;;;;;;27.92;10.50;;;16.40;70.30;;;;;;4112424;28;20109;-61
2022/01/13 05:03:08;;;;;;;20.00;9.98;;;16.30;70.20;;;;;;4111281;28;20058;-61
2022/01/13 05:05:31;;;;;;;18.88;9.85;;;16.30;70.30;;;;;;4112725;28;20129;-61
2022/01/13 05:07:55;;;;;;;20.35;10.45;;;16.30;70.50;;;;;;4112178;28;20081;-61
2022/01/13 05:10:19;;;;;;;23.88;10.57;;;16.20;70.60;;;;;;4112500;28;20569;-61
2022/01/13 05:12:48;;;;;;;22.52;10.38;;;16.20;70.80;;;;;;4112469;28;20589;-60
2022/01/13 05:15:16;;;;;;;20.05;10.93;;;16.10;71.00;;;;;;4112667;28;20097;-61
2022/01/13 05:18:05;;;;;;;22.73;10.23;;;16.10;71.20;;;;;;4112004;28;20046;-61
2022/01/13 05:20:37;;;;;;;22.65;10.57;;;16.10;71.20;;;;;;4111351;28;20094;-61
2022/01/13 05:23:02;;;;;;;25.88;10.52;;;16.10;71.20;;;;;;4111824;28;20047;-61
2022/01/13 05:25:25;;;;;;;22.55;10.75;;;16.10;71.10;;;;;;4112237;28;20051;-61
2022/01/13 05:27:49;;;;;;;25.85;11.18;;;16.10;71.20;;;;;;4111803;28;20058;-62
2022/01/13 05:30:15;;;;;;;21.98;11.65;;;16.00;71.30;;;;;;4111839;28;20476;-61
2022/01/13 05:32:38;;;;;;;18.55;10.77;;;16.00;71.50;;;;;;4111714;28;20491;-61
2022/01/13 05:35:01;;;;;;;18.08;9.98;;;16.00;71.70;;;;;;4112157;28;20054;-68
2022/01/13 05:37:24;;;;;;;23.80;10.57;;;16.00;71.70;;;;;;4111744;28;20058;-69
2022/01/13 05:39:48;;;;;;;27.45;10.43;;;16.00;71.70;;;;;;4111995;28;20652;-67
2022/01/13 05:42:12;;;;;;;24.60;10.05;;;16.00;71.70;;;;;;4111656;28;20054;-61
2022/01/13 05:44:38;;;;;;;26.90;9.38;;;16.00;71.70;;;;;;4111311;28;20043;-61
2022/01/13 05:47:01;;;;;;;26.77;10.68;;;16.20;71.80;;;;;;4109964;28;20101;-61
2022/01/13 05:49:24;;;;;;;23.85;10.15;;;16.30;71.10;;;;;;4111962;28;20062;-61
2022/01/13 05:51:48;;;;;;;29.00;11.07;;;16.40;70.40;;;;;;4111560;28;20054;-61
2022/01/13 05:54:11;;;;;;;20.55;9.52;;;16.50;70.10;;;;;;4112070;28;20504;-61
2022/01/13 05:56:35;;;;;;;25.23;9.48;;;16.50;69.90;;;;;;4111150;28;20105;-61
2022/01/13 05:58:58;;;;;;;24.02;10.48;;;16.40;69.80;;;;;;4111438;28;20486;-61
2022/01/13 06:01:21;;;;;;;21.63;9.60;;;16.40;70.90;;;;;;4111029;28;20058;-60
2022/01/13 06:03:44;;;;;;;20.88;9.48;;;16.30;70.10;;;;;;4111227;28;20109;-61
2022/01/13 06:06:07;;;;;;;22.25;9.50;;;16.30;70.40;;;;;;4111505;28;20050;-61
2022/01/13 06:08:31;;;;;;;21.63;9.20;;;16.20;70.60;;;;;;4117352;28;20109;-61
2022/01/13 06:10:53;;;;;;;16.05;9.75;;;16.20;70.80;;;;;;4110845;28;20055;-61
2022/01/13 06:13:18;;;;;;;23.83;10.15;;;16.10;70.90;;;;;;4111390;28;20129;-61
2022/01/13 06:15:41;;;;;;;20.48;9.88;;;16.10;71.10;;;;;;4111245;28;20054;-61
2022/01/13 06:18:10;;;;;;;24.33;10.07;;;16.00;71.10;;;;;;4111424;28;20058;-60
2022/01/13 06:20:33;;;;;;;25.13;10.23;;;16.00;71.30;;;;;;4109903;28;20051;-61
2022/01/13 06:22:57;;;;;;;25.55;10.07;;;16.00;71.40;;;;;;4111430;28;20097;-60
2022/01/13 06:25:21;;;;;;;23.15;10.88;;;15.90;71.70;;;;;;4111491;28;20105;-61
2022/01/13 06:27:44;;;;;;;20.40;9.57;;;15.90;72.00;;;;;;4111018;28;20054;-61
2022/01/13 06:30:30;;;;;;;22.83;11.25;;;15.90;72.20;;;;;;4110811;28;20058;-62
2022/01/13 06:32:52;;;;;;;23.48;11.15;;;16.00;72.00;;;;;;4110694;28;20105;-60
2022/01/13 06:35:16;;;;;;;21.90;11.10;;;16.10;72.40;;;;;;4111115;28;20555;-61
2022/01/13 06:37:40;;;;;;;25.23;11.10;;;16.20;71.10;;;;;;4110810;28;20055;-61
2022/01/13 06:40:05;;;;;;;22.73;12.57;;;16.30;70.70;;;;;;4109680;28;20459;-61
2022/01/13 06:42:28;;;;;;;19.63;11.13;;;16.30;70.50;;;;;;4111113;28;20050;-61
2022/01/13 06:44:51;;;;;;;22.02;10.40;;;16.30;70.30;;;;;;4110979;28;20400;-61
2022/01/13 06:47:16;;;;;;;23.60;11.48;;;16.30;70.20;;;;;;4110711;28;20106;-61
2022/01/13 06:49:39;;;;;;;24.30;12.30;;;16.30;71.30;;;;;;4110980;28;20476;-61
2022/01/13 06:52:03;;;;;;;25.20;13.10;;;16.20;70.60;;;;;;4111169;28;20047;-61
2022/01/13 06:54:26;;;;;;;23.65;11.70;;;16.20;70.90;;;;;;4110505;28;20050;-61
2022/01/13 06:56:50;;;;;;;22.77;11.57;;;16.20;71.00;;;;;;4110223;28;20105;-61
2022/01/13 06:59:14;;;;;;;24.52;12.05;;;16.20;70.90;;;;;;4111025;28;20043;-61
2022/01/13 07:01:37;;;;;;;23.83;11.80;;;16.20;71.00;;;;;;4109213;28;20798;-61
2022/01/13 07:04:01;;;;;;;31.88;13.20;;;16.10;71.10;;;;;;4110859;28;20113;-61
2022/01/13 07:06:24;;;;;;;25.23;12.23;;;16.10;71.10;;;;;;4110116;28;20059;-61
2022/01/13 07:08:47;;;;;;;23.80;12.05;;;16.00;71.60;;;;;;4110386;28;20466;-60
2022/01/13 07:11:10;;;;;;;31.13;13.23;;;16.00;71.90;;;;;;4110538;28;20054;-61
2022/01/13 07:13:34;;;;;;;20.92;11.25;;;16.00;72.20;;;;;;4110572;28;20101;-61
2022/01/13 07:15:58;;;;;;;30.40;13.25;;;16.00;72.10;;;;;;4109281;28;20051;-61
2022/01/13 07:18:21;;;;;;;26.40;12.70;;;16.00;72.20;;;;;;4110488;28;20080;-61
2022/01/13 07:20:46;;;;;;;29.67;13.70;;;16.10;72.10;;;;;;4109879;28;20073;-72
2022/01/13 07:23:09;;;;;;;28.83;11.95;;;16.30;71.80;;;;;;4110397;28;20105;-71
2022/01/13 07:25:32;;;;;;;29.38;12.05;;;16.40;70.70;;;;;;4109036;28;20097;-70
2022/01/13 07:27:56;;;;;;;27.23;13.38;;;16.50;69.70;;;;;;4105868;28;20082;-71
2022/01/13 07:30:19;;;;;;;30.10;13.77;;;16.60;68.90;;;;;;4109448;28;20454;-69
2022/01/13 07:32:43;;;;;;;29.98;13.68;;;16.70;68.40;;;;;;4114143;28;20046;-69
2022/01/13 07:35:07;;;;;;;25.08;12.80;;;16.70;68.20;;;;;;4115886;28;20054;-69
2022/01/13 07:37:31;;;;;;;29.67;13.57;;;16.60;68.00;;;;;;4109777;28;20050;-69
2022/01/13 07:39:54;;;;;;;27.83;13.13;;;16.50;68.10;;;;;;4107380;28;20097;-68
2022/01/13 07:42:17;;;;;;;30.42;14.02;;;16.50;68.20;;;;;;4109907;28;20137;-69
2022/01/13 07:44:40;;;;;;;33.03;13.55;;;16.40;68.40;;;;;;4108403;28;20116;-69
2022/01/13 07:47:04;;;;;;;29.73;13.73;;;16.30;68.60;;;;;;4110030;28;20058;-67
2022/01/13 07:49:27;;;;;;;28.40;13.82;;;16.20;68.70;;;;;;4116213;28;20050;-69
2022/01/13 07:51:51;;;;;;;31.55;14.00;;;16.10;69.00;;;;;;4125662;28;20054;-69
2022/01/13 07:54:15;;;;;;;27.35;14.05;;;16.10;69.20;;;;;;4125208;28;20054;-69
2022/01/13 07:56:38;;;;;;;30.75;13.43;;;16.10;69.20;;;;;;4125268;28;20113;-68
2022/01/13 07:59:01;;;;;;;28.00;13.63;;;16.00;69.30;;;;;;4113434;28;20243;-68
2022/01/13 08:01:25;;;;;;;23.90;12.43;;;16.00;69.30;;;;;;4108384;28;20423;-68
2022/01/13 08:03:48;;;;;;;26.58;12.70;;;15.90;69.40;;;;;;4110763;28;20089;-68
2022/01/13 08:06:11;;;;;;;28.65;13.82;;;15.90;69.60;;;;;;4109648;28;20439;-67
2022/01/13 08:08:36;;;;;;;28.83;13.30;;;16.00;69.60;;;;;;4122375;28;20533;-69
2022/01/13 08:11:00;;;;;;;22.80;11.27;;;16.10;69.20;;;;;;4103332;28;20042;-69
2022/01/13 08:13:23;;;;;;;30.58;13.85;;;16.20;68.50;;;;;;4113398;28;20388;-68
2022/01/13 08:15:54;;;;;;;25.65;13.27;;;16.30;67.90;;;;;;4112723;28;20101;-69
2022/01/13 08:20:58;;;;;;;24.58;13.43;;;16.40;67.40;;;;;;4101709;28;20097;-68
2022/01/13 08:23:21;;;;;;;31.73;14.07;;;16.40;67.40;;;;;;4112663;28;20054;-69
2022/01/13 08:25:44;;;;;;;23.20;12.90;;;16.40;68.00;;;;;;4102210;28;20051;-69
2022/01/13 08:28:10;;;;;;;40.10;13.20;;;16.50;66.80;;;;;;4110314;28;20117;-68
2022/01/13 08:30:35;;;;;;;22.60;12.43;;;16.50;66.50;;;;;;4112919;28;20557;-60
2022/01/13 08:32:58;;;;;;;25.77;13.20;;;16.50;66.40;;;;;;4112469;28;20129;-60
2022/01/13 08:35:21;;;;;;;28.63;12.13;;;16.50;66.50;;;;;;4113230;28;20495;-60
2022/01/13 08:37:44;;;;;;;27.77;13.50;;;16.40;66.60;;;;;;4104588;28;20646;-60
2022/01/13 08:40:10;;;;;;;27.40;13.35;;;16.50;66.60;;;;;;4113097;28;20055;-60
2022/01/13 08:42:33;;;;;;;25.80;13.13;;;16.50;67.00;;;;;;4110793;28;20170;-61
2022/01/13 08:44:58;;;;;;;27.52;13.52;;;16.50;67.20;;;;;;4112679;28;20051;-60
2022/01/13 08:47:21;;;;;;;22.85;12.45;;;16.50;68.10;;;;;;4112890;28;20062;-60
2022/01/13 08:49:44;;;;;;;24.05;13.38;;;16.50;67.30;;;;;;4112113;28;20059;-61
2022/01/13 08:52:08;;;;;;;25.20;12.65;;;16.50;67.50;;;;;;4110373;28;20174;-61
2022/01/13 08:54:31;;;;;;;22.20;13.18;;;16.40;68.70;;;;;;4096928;28;20436;-61
2022/01/13 08:56:55;;;;;;;23.92;12.63;;;16.30;68.10;;;;;;4096552;28;20447;-61
2022/01/13 08:59:18;;;;;;;23.25;13.02;;;16.20;68.60;;;;;;4101943;28;20055;-61
2022/01/13 09:01:43;;;;;;;29.17;13.48;;;16.20;69.20;;;;;;4111886;28;20050;-61
2022/01/13 09:04:06;;;;;;;23.73;12.02;;;16.20;69.30;;;;;;4112390;28;20084;-61
2022/01/13 09:06:29;;;;;;;23.92;12.43;;;16.30;69.00;;;;;;4112521;28;20154;-61
2022/01/13 09:08:53;;;;;;;30.48;13.40;;;16.40;68.70;;;;;;4112616;28;20431;-61
2022/01/13 09:11:16;;;;;;;24.75;12.15;;;16.40;68.40;;;;;;4105850;28;20051;-60
2022/01/13 09:13:39;;;;;;;28.25;13.48;;;16.40;68.40;;;;;;4112498;28;20050;-61
2022/01/13 09:16:02;;;;;;;23.55;13.15;;;16.40;68.60;;;;;;4110683;28;20495;-61
2022/01/13 09:18:46;;;;;;;27.63;12.48;;;16.40;68.80;;;;;;4111325;28;20455;-61
2022/01/13 09:21:09;;;;;;;26.90;12.40;;;16.40;68.90;;;;;;4095438;28;20114;-61
2022/01/13 09:23:36;;;;;;;21.08;11.50;;;16.40;68.90;;;;;;4096214;28;20046;-60
2022/01/13 09:25:58;;;;;;;23.13;11.93;;;16.50;68.80;;;;;;4095597;28;20066;-62
2022/01/13 09:28:21;;;;;;;22.40;10.55;;;16.50;68.70;;;;;;4096167;28;20471;-61
2022/01/13 09:30:45;;;;;;;24.38;11.63;;;16.40;68.80;;;;;;4110469;28;20055;-61
2022/01/13 09:33:08;;;;;;;28.45;13.30;;;16.40;69.00;;;;;;4111885;28;20436;-61
2022/01/13 09:35:33;;;;;;;23.73;11.95;;;16.30;69.20;;;;;;4111749;28;20055;-61
2022/01/13 09:37:56;;;;;;;22.80;12.90;;;16.30;69.50;;;;;;4112057;28;20051;-61
2022/01/13 09:40:19;;;;;;;25.83;13.00;;;16.20;69.70;;;;;;4120765;28;20058;-61
2022/01/13 09:42:45;;;;;;;23.70;12.43;;;16.20;69.90;;;;;;4127988;28;20707;-61
2022/01/13 09:45:09;;;;;;;24.50;12.93;;;16.10;70.10;;;;;;4128213;28;20093;-60
2022/01/13 09:47:33;;;;;;;22.02;11.80;;;16.10;70.50;;;;;;4127669;28;20557;-60
2022/01/13 09:49:56;;;;;;;23.75;12.60;;;16.00;70.80;;;;;;4121266;28;20093;-61
2022/01/13 09:52:22;;;;;;;23.35;12.40;;;16.10;71.00;;;;;;4111372;28;20058;-61
2022/01/13 09:54:45;;;;;;;24.83;12.35;;;16.20;70.80;;;;;;4111362;28;20175;-61
2022/01/13 09:57:09;;;;;;;24.42;13.00;;;16.20;70.40;;;;;;4111001;28;20055;-61
2022/01/13 09:59:32;;;;;;;26.30;14.18;;;16.30;70.10;;;;;;4113866;28;21410;-61
2022/01/13 10:01:55;;;;;;;28.67;13.85;;;16.30;69.90;;;;;;4127545;28;20042;-61
2022/01/13 10:04:18;;;;;;;25.30;14.07;;;16.30;70.00;;;;;;4127544;28;20057;-61
2022/01/13 10:06:47;;;;;;;28.70;13.68;;;16.20;69.90;;;;;;4125969;28;20042;-61
2022/01/13 10:09:12;;;;;;;25.70;13.13;;;16.20;70.20;;;;;;4127116;28;20062;-61
2022/01/13 10:11:40;;;;;;;25.80;13.45;;;16.20;70.50;;;;;;4111221;28;20038;-61
2022/01/13 10:14:06;;;;;;;30.33;14.25;;;16.20;70.50;;;;;;4111728;28;20470;-61
2022/01/13 10:16:28;;;;;;;27.25;14.00;;;16.30;70.40;;;;;;4111529;28;20109;-61
2022/01/13 10:18:52;;;;;;;24.23;13.15;;;16.30;70.30;;;;;;4111389;28;20093;-61
2022/01/13 10:21:17;;;;;;;27.70;14.30;;;16.30;70.20;;;;;;4095508;28;20460;-61
2022/01/13 10:24:02;;;;;;;27.40;14.38;;;16.30;70.20;;;;;;4110633;28;20051;-61
2022/01/13 10:26:27;;;;;;;30.02;15.07;;;16.30;69.90;;;;;;4110485;28;20121;-60
2022/01/13 10:28:52;;;;;;;27.10;13.98;;;16.30;70.50;;;;;;4111106;28;20055;-61
2022/01/13 10:31:15;;;;;;;27.48;13.68;;;16.30;70.20;;;;;;4123186;28;20054;-61
2022/01/13 10:33:38;;;;;;;26.23;13.88;;;16.30;70.30;;;;;;4126299;28;20104;-61
2022/01/13 10:36:09;;;;;;;27.98;14.23;;;16.30;70.40;;;;;;4127129;28;20082;-61
2022/01/13 10:38:51;;;;;;;30.70;14.37;;;16.20;70.60;;;;;;4127384;28;20187;-61
2022/01/13 10:41:29;;;;;;;;;;;16.20;71.50;;;;;;4095084;28;20051;-61
2022/01/13 10:44:16;;;;;;;27.55;14.60;;;16.30;70.70;;;;;;4094629;28;20201;-61
2022/01/13 10:46:59;;;;;;;27.60;15.02;;;16.30;70.50;;;;;;4094789;28;20055;-61
2022/01/13 10:49:31;;;;;;;33.60;15.40;;;16.30;70.40;;;;;;4102909;28;20058;-61
2022/01/13 10:51:55;;;;;;;27.80;14.73;;;16.30;70.60;;;;;;4126736;28;20054;-61
2022/01/13 10:54:25;;;;;;;31.45;13.38;;;16.30;70.60;;;;;;4126954;28;20069;-61
2022/01/13 10:56:48;;;;;;;23.85;13.13;;;16.20;70.60;;;;;;4126710;28;20054;-61
2022/01/13 10:59:11;;;;;;;26.33;13.35;;;16.20;70.90;;;;;;4123479;28;20050;-61
2022/01/13 11:01:36;;;;;;;27.58;14.32;;;16.10;71.20;;;;;;4110557;28;20113;-61
2022/01/13 11:03:59;;;;;;;21.90;13.75;;;16.10;71.20;;;;;;4110764;28;20447;-61
2022/01/13 11:06:28;;;;;;;25.08;13.23;;;16.10;71.50;;;;;;4110589;28;20110;-61
2022/01/13 11:08:52;;;;;;;24.38;12.65;;;16.00;71.70;;;;;;4110888;28;20046;-62
2022/01/13 11:11:21;;;;;;;25.58;13.77;;;15.90;72.10;;;;;;4110457;28;20058;-60
2022/01/13 11:13:53;;;;;;;26.25;14.45;;;15.90;72.20;;;;;;4110400;28;20113;-61
2022/01/13 11:16:17;;;;;;;28.27;13.95;;;15.90;72.20;;;;;;4110217;28;20086;-61
2022/01/13 11:18:41;;;;;;;25.10;15.10;;;15.90;72.30;;;;;;4110294;28;20475;-61
2022/01/13 11:21:04;;;;;;;29.02;15.75;;;15.90;72.50;;;;;;4106483;28;20055;-61
2022/01/13 11:23:28;;;;;;;33.65;15.00;;;15.80;72.60;;;;;;4094545;28;20101;-61
2022/01/13 11:25:52;;;;;;;27.83;15.50;;;15.80;72.80;;;;;;4094474;28;20043;-61
2022/01/13 11:28:16;;;;;;;28.83;16.00;;;15.70;73.00;;;;;;4094683;28;20047;-61
2022/01/13 11:30:40;;;;;;;27.33;14.65;;;15.70;73.20;;;;;;4123354;28;20093;-61
2022/01/13 11:33:03;;;;;;;30.55;16.55;;;15.70;73.50;;;;;;4126591;28;20108;-61
2022/01/13 11:35:30;;;;;;;31.88;15.93;;;15.80;73.40;;;;;;4109933;28;20078;-61
2022/01/13 11:37:56;;;;;;;29.42;16.10;;;15.90;73.10;;;;;;4109933;28;20502;-61
2022/01/13 11:40:40;;;;;;;26.33;15.27;;;16.00;72.50;;;;;;4109846;28;20400;-61
2022/01/13 11:43:06;;;;;;;27.98;16.85;;;16.20;71.70;;;;;;4108880;28;20093;-61
2022/01/13 11:45:29;;;;;;;31.77;17.83;;;16.30;71.30;;;;;;4110291;28;20117;-61
2022/01/13 11:48:12;;;;;;;34.30;18.15;;;16.40;71.10;;;;;;4108553;28;20105;-61
2022/01/13 11:50:43;;;;;;;30.90;16.75;;;16.50;70.60;;;;;;4109894;28;20047;-68
2022/01/13 11:53:23;;;;;;;30.67;15.00;;;16.60;70.40;;;;;;4108037;28;20046;-68
2022/01/13 11:55:51;;;;;;;28.60;15.07;;;16.60;70.00;;;;;;4093772;28;20428;-67
2022/01/13 11:58:41;;;;;;;29.50;15.18;;;16.70;69.90;;;;;;4093426;28;20439;-67
2022/01/13 12:01:17;;;;;;;25.15;14.40;;;16.80;69.30;;;;;;4122207;28;20081;-67
2022/01/13 12:03:42;;;;;;;22.20;13.18;;;16.90;68.80;;;;;;4108633;28;20565;-67
2022/01/13 12:06:07;;;;;;;24.02;14.32;;;17.00;68.60;;;;;;4109880;28;20109;-62
2022/01/13 12:08:40;;;;;;;22.23;12.02;;;17.00;68.40;;;;;;4110193;28;20458;-61
2022/01/13 12:11:03;;;;;;;30.25;14.27;;;16.90;68.20;;;;;;4109446;28;20054;-62
2022/01/13 12:13:39;;;;;;;26.70;14.23;;;16.90;68.60;;;;;;4109865;28;20055;-61
2022/01/13 12:16:03;;;;;;;23.73;13.15;;;16.80;68.80;;;;;;4109332;28;20185;-61
2022/01/13 12:19:01;;;;;;;23.10;12.82;;;16.70;69.30;;;;;;4109989;28;20495;-61
2022/01/13 12:21:28;;;;;;;23.27;13.07;;;16.60;69.50;;;;;;4110171;28;20063;-61
2022/01/13 12:23:51;;;;;;;20.42;12.20;;;16.50;70.00;;;;;;4108277;28;20046;-61
2022/01/13 12:26:46;;;;;;;23.95;12.95;;;16.50;70.50;;;;;;4110230;28;20094;-66
2022/01/13 12:29:12;;;;;;;24.52;13.13;;;16.50;70.40;;;;;;4109497;28;20089;-68
2022/01/13 12:31:35;;;;;;;25.65;15.05;;;16.50;70.60;;;;;;4111622;28;20102;-67
2022/01/13 12:33:58;;;;;;;31.08;14.88;;;16.50;70.60;;;;;;4107238;28;20460;-67